createdAt,value
2022-08-11T00:02:34.953Z,21.94
2022-08-11T00:05:08.066Z,21.99
2022-08-11T00:07:44.282Z,22.00
2022-08-11T00:10:16.606Z,22.03
2022-08-11T00:12:51.781Z,22.02
2022-08-11T00:15:18.984Z,22.05
2022-08-11T00:17:47.914Z,22.08
2022-08-11T00:20:17.153Z,22.05
2022-08-11T00:22:48.419Z,22.02
2022-08-11T00:25:19.845Z,22.02
2022-08-11T00:27:48.619Z,22.02
2022-08-11T00:30:17.170Z,22.02
2022-08-11T00:32:53.241Z,22.02
2022-08-11T00:35:56.230Z,21.98
2022-08-11T00:38:17.395Z,21.76
2022-08-11T00:40:53.534Z,21.74
2022-08-11T00:43:41.863Z,21.58
2022-08-11T00:46:19.399Z,21.53
2022-08-11T00:49:05.700Z,21.52
2022-08-11T00:52:04.417Z,21.51
2022-08-11T00:55:21.557Z,21.51
2022-08-11T00:58:52.351Z,21.55
2022-08-11T01:01:34.635Z,21.53
2022-08-11T01:05:01.226Z,21.42
2022-08-11T01:08:16.072Z,21.37
2022-08-11T01:11:10.672Z,21.32
2022-08-11T01:14:50.683Z,21.31
2022-08-11T01:18:10.769Z,21.27
2022-08-11T01:21:15.359Z,21.23
2022-08-11T01:25:04.914Z,21.14
2022-08-11T01:28:23.000Z,21.06
2022-08-11T01:31:45.777Z,20.95
2022-08-11T01:35:10.840Z,20.88
2022-08-11T01:38:34.438Z,20.76
2022-08-11T01:41:31.808Z,20.68
2022-08-11T01:44:32.727Z,20.60
2022-08-11T01:47:19.121Z,20.58
2022-08-11T01:50:10.684Z,20.59
2022-08-11T01:53:03.617Z,20.60
2022-08-11T01:55:47.563Z,20.17
2022-08-11T01:58:43.593Z,20.17
2022-08-11T02:01:36.901Z,20.19
2022-08-11T02:04:25.683Z,20.22
2022-08-11T02:07:09.681Z,20.03
2022-08-11T02:10:35.143Z,20.01
2022-08-11T02:13:33.409Z,20.01
2022-08-11T02:16:29.054Z,19.95
2022-08-11T02:19:11.195Z,19.95
2022-08-11T02:21:54.930Z,19.93
2022-08-11T02:24:32.133Z,19.82
2022-08-11T02:27:14.289Z,19.63
2022-08-11T02:29:55.317Z,19.57
2022-08-11T02:32:34.829Z,19.56
2022-08-11T02:35:14.227Z,19.54
2022-08-11T02:37:53.278Z,19.48
2022-08-11T02:40:35.811Z,19.10
2022-08-11T02:43:10.929Z,18.92
2022-08-11T02:45:56.450Z,18.96
2022-08-11T02:48:47.655Z,18.98
2022-08-11T02:51:30.022Z,18.86
2022-08-11T02:54:10.850Z,18.79
2022-08-11T02:56:50.486Z,18.83
2022-08-11T02:59:36.907Z,18.81
2022-08-11T03:02:20.194Z,18.77
2022-08-11T03:05:04.977Z,18.65
2022-08-11T03:07:47.827Z,18.24
2022-08-11T03:10:28.150Z,18.10
2022-08-11T03:13:11.350Z,17.98
2022-08-11T03:15:52.156Z,17.92
2022-08-11T03:18:34.489Z,18.02
2022-08-11T03:21:12.586Z,17.93
2022-08-11T03:23:53.456Z,17.69
2022-08-11T03:26:30.508Z,17.66
2022-08-11T03:29:10.937Z,17.77
2022-08-11T03:32:02.460Z,17.91
2022-08-11T03:34:33.261Z,18.06
2022-08-11T03:37:26.747Z,18.17
2022-08-11T03:40:12.500Z,18.22
2022-08-11T03:42:53.088Z,18.13
2022-08-11T03:45:37.418Z,17.91
2022-08-11T03:48:24.960Z,17.74
2022-08-11T03:51:11.006Z,17.83
2022-08-11T03:54:06.361Z,17.85
2022-08-11T03:57:35.813Z,17.78
2022-08-11T04:00:38.791Z,17.43
2022-08-11T04:03:57.587Z,17.56
2022-08-11T04:07:17.555Z,17.15
2022-08-11T04:10:14.590Z,17.18
2022-08-11T04:13:19.433Z,17.09
2022-08-11T04:16:16.219Z,17.11
2022-08-11T04:19:29.788Z,17.24
2022-08-11T04:22:53.363Z,17.29
2022-08-11T04:25:57.702Z,17.40
2022-08-11T04:28:59.967Z,17.52
2022-08-11T04:31:50.608Z,17.74
2022-08-11T04:35:00.266Z,17.82
2022-08-11T04:38:05.627Z,17.87
2022-08-11T04:40:55.748Z,18.19
2022-08-11T04:44:27.598Z,18.63
2022-08-11T04:47:20.895Z,19.21
2022-08-11T04:50:15.175Z,19.76
2022-08-11T04:53:15.844Z,20.36
2022-08-11T04:56:05.527Z,20.95
2022-08-11T04:59:00.690Z,21.40
2022-08-11T05:01:45.218Z,21.65
2022-08-11T05:04:48.951Z,22.13
2022-08-11T05:08:07.707Z,22.62
2022-08-11T05:10:59.890Z,23.26
2022-08-11T05:13:34.507Z,23.73
2022-08-11T05:16:13.465Z,24.06
2022-08-11T05:18:49.926Z,24.57
2022-08-11T05:21:25.113Z,25.08
2022-08-11T05:24:03.038Z,25.53
2022-08-11T05:26:49.135Z,26.12
2022-08-11T05:29:44.647Z,26.33
2022-08-11T05:32:17.369Z,26.39
2022-08-11T05:34:51.906Z,26.85
2022-08-11T05:37:34.372Z,27.27
2022-08-11T05:40:09.074Z,27.66
2022-08-11T05:42:49.931Z,28.00
2022-08-11T05:45:19.358Z,28.48
2022-08-11T05:47:54.294Z,29.15
2022-08-11T05:50:31.347Z,29.20
2022-08-11T05:53:12.663Z,28.74
2022-08-11T05:56:01.886Z,29.36
2022-08-11T05:58:41.978Z,30.02
2022-08-11T06:01:11.811Z,29.92
2022-08-11T06:03:43.682Z,30.33
2022-08-11T06:06:32.875Z,30.72
2022-08-11T06:09:03.025Z,31.00
2022-08-11T06:11:43.500Z,31.20
2022-08-11T06:14:14.858Z,31.31
2022-08-11T06:16:46.735Z,31.60
2022-08-11T06:19:14.418Z,32.03
2022-08-11T06:21:46.307Z,32.64
2022-08-11T06:24:17.348Z,32.96
2022-08-11T06:27:11.882Z,32.57
2022-08-11T06:29:55.157Z,33.18
2022-08-11T06:32:36.106Z,33.47
2022-08-11T06:35:22.020Z,33.54
2022-08-11T06:38:10.313Z,33.79
2022-08-11T06:40:56.684Z,33.75
2022-08-11T06:43:30.509Z,34.01
2022-08-11T06:46:03.260Z,34.39
2022-08-11T06:48:33.755Z,34.17
2022-08-11T06:51:05.236Z,34.89
2022-08-11T06:53:34.843Z,35.29
2022-08-11T06:56:03.742Z,35.83
2022-08-11T07:02:57.116Z,35.49
2022-08-11T07:05:40.267Z,35.59
2022-08-11T07:08:53.101Z,36.24
2022-08-11T07:11:59.747Z,36.32
2022-08-11T07:14:36.349Z,36.80
2022-08-11T07:17:14.533Z,37.14
2022-08-11T07:19:59.623Z,37.14
2022-08-11T07:22:35.262Z,37.33
2022-08-11T07:25:18.325Z,37.22
2022-08-11T07:27:52.983Z,37.44
2022-08-11T07:30:20.712Z,37.74
2022-08-11T07:41:01.396Z,38.01
2022-08-11T07:43:45.583Z,38.12
2022-08-11T07:46:21.510Z,36.31
2022-08-11T07:48:49.617Z,37.02
2022-08-11T07:51:20.241Z,37.72
2022-08-11T07:53:58.737Z,37.90
2022-08-11T07:57:07.233Z,38.03
2022-08-11T08:00:03.838Z,38.22
2022-08-11T08:02:17.594Z,36.94
2022-08-11T08:04:47.892Z,34.96
2022-08-11T08:07:22.361Z,30.75
2022-08-11T08:09:51.518Z,29.48
2022-08-11T08:12:23.693Z,28.73
2022-08-11T08:14:55.478Z,28.67
2022-08-11T08:17:24.318Z,28.53
2022-08-11T08:19:51.352Z,28.60
2022-08-11T08:22:38.671Z,27.66
2022-08-11T08:25:08.684Z,27.63
2022-08-11T08:27:37.920Z,27.56
2022-08-11T08:30:08.376Z,27.68
2022-08-11T08:32:40.547Z,27.45
2022-08-11T08:35:10.972Z,27.11
2022-08-11T08:37:46.240Z,27.37
2022-08-11T08:40:15.588Z,27.63
2022-08-11T08:42:49.720Z,27.95
2022-08-11T08:45:18.811Z,27.60
2022-08-11T08:47:56.430Z,27.03
2022-08-11T08:56:21.778Z,27.28
2022-08-11T08:58:53.430Z,27.36
2022-08-11T09:01:48.187Z,27.63
2022-08-11T09:23:19.229Z,27.37
2022-08-11T09:26:15.938Z,26.98
2022-08-11T09:28:44.248Z,27.32
2022-08-11T09:31:22.466Z,27.73
2022-08-11T09:33:54.642Z,27.45
2022-08-11T09:36:23.091Z,27.26
2022-08-11T09:38:53.961Z,27.32
2022-08-11T09:41:25.767Z,27.72
2022-08-11T09:43:53.754Z,27.56
2022-08-11T09:46:26.506Z,27.39
2022-08-11T09:48:58.605Z,27.55
2022-08-11T09:51:31.811Z,27.81
2022-08-11T09:54:04.780Z,27.37
2022-08-11T09:56:33.597Z,27.70
2022-08-11T09:59:03.492Z,27.17
2022-08-11T10:01:37.146Z,27.75
2022-08-11T10:04:14.208Z,27.46
2022-08-11T10:06:43.190Z,27.76
2022-08-11T10:09:14.566Z,28.03
2022-08-11T10:11:43.815Z,27.93
2022-08-11T10:14:33.905Z,28.15
2022-08-11T10:17:08.396Z,27.99
2022-08-11T10:19:38.774Z,28.07
2022-08-11T10:22:07.955Z,28.41
2022-08-11T10:24:37.614Z,28.08
2022-08-11T10:27:08.211Z,28.10
2022-08-11T10:29:44.315Z,28.46
2022-08-11T10:32:14.495Z,28.09
2022-08-11T10:34:49.668Z,28.29
2022-08-11T10:37:24.597Z,28.22
2022-08-11T10:40:18.509Z,28.69
2022-08-11T10:42:57.687Z,28.55
2022-08-11T10:45:28.232Z,28.83
2022-08-11T10:47:57.675Z,29.61
2022-08-11T10:50:26.819Z,29.55
2022-08-11T10:52:57.509Z,29.62
2022-08-11T10:55:28.467Z,30.12
2022-08-11T10:58:05.002Z,29.93
2022-08-11T11:00:33.741Z,30.60
2022-08-11T11:03:22.950Z,29.36
2022-08-11T11:06:12.621Z,29.35
2022-08-11T11:09:04.164Z,29.56
2022-08-11T11:11:48.018Z,30.67
2022-08-11T11:14:19.229Z,30.48
2022-08-11T11:16:46.744Z,30.87
2022-08-11T11:19:26.171Z,30.06
2022-08-11T11:22:01.499Z,30.19
2022-08-11T11:24:46.028Z,29.51
2022-08-11T11:27:33.555Z,30.79
2022-08-11T11:30:06.994Z,32.55
2022-08-11T11:32:58.585Z,33.75
2022-08-11T11:35:38.775Z,29.40
2022-08-11T11:38:13.196Z,29.41
2022-08-11T11:52:31.561Z,28.78
2022-08-11T11:55:04.119Z,29.17
2022-08-11T11:57:35.442Z,29.68
2022-08-11T12:00:06.318Z,29.51
2022-08-11T12:02:40.034Z,29.43
2022-08-11T12:05:11.231Z,29.74
2022-08-11T12:07:41.519Z,29.83
2022-08-11T12:10:10.114Z,29.38
2022-08-11T12:12:37.799Z,29.24
2022-08-11T12:15:07.307Z,28.94
2022-08-11T12:17:36.197Z,28.79
2022-08-11T12:20:31.536Z,28.84
2022-08-11T12:22:57.978Z,28.89
2022-08-11T12:25:25.356Z,29.45
2022-08-11T12:27:53.985Z,29.20
2022-08-11T12:30:21.336Z,29.20
2022-08-11T12:32:49.402Z,29.27
2022-08-11T12:35:18.262Z,29.18
2022-08-11T12:37:51.617Z,29.35
2022-08-11T12:40:42.994Z,29.15
2022-08-11T12:43:21.262Z,29.05
2022-08-11T12:46:02.508Z,29.20
2022-08-11T12:48:58.382Z,29.55
2022-08-11T12:52:00.607Z,28.97
2022-08-11T12:54:28.639Z,29.04
2022-08-11T12:57:02.500Z,29.06
2022-08-11T12:59:31.755Z,29.23
2022-08-11T13:01:59.867Z,29.40
2022-08-11T13:04:29.501Z,29.02
2022-08-11T13:06:58.223Z,29.10
2022-08-11T13:09:25.716Z,29.22
2022-08-11T13:11:55.840Z,29.27
2022-08-11T13:14:27.219Z,29.56
2022-08-11T13:16:54.977Z,29.43
2022-08-11T13:19:23.939Z,29.42
2022-08-11T13:21:53.287Z,29.76
2022-08-11T13:24:23.311Z,29.49
2022-08-11T13:26:51.853Z,29.38
2022-08-11T13:29:22.034Z,29.31
2022-08-11T13:31:51.398Z,29.30
2022-08-11T13:34:21.271Z,29.50
2022-08-11T13:36:51.121Z,29.60
2022-08-11T13:39:19.344Z,29.55
2022-08-11T13:41:50.088Z,29.61
2022-08-11T13:44:24.795Z,29.53
2022-08-11T13:46:57.624Z,29.37
2022-08-11T13:49:26.278Z,29.53
2022-08-11T13:51:59.685Z,29.63
2022-08-11T13:54:31.447Z,29.78
2022-08-11T13:57:09.327Z,29.77
2022-08-11T13:59:51.769Z,29.73
2022-08-11T14:02:29.949Z,29.75
2022-08-11T14:05:05.036Z,29.77
2022-08-11T14:07:41.321Z,29.61
2022-08-11T14:10:14.349Z,29.47
2022-08-11T14:12:56.931Z,29.57
2022-08-11T14:15:33.196Z,29.67
2022-08-11T14:18:07.479Z,29.58
2022-08-11T14:20:58.498Z,29.75
2022-08-11T14:23:31.566Z,29.52
2022-08-11T14:26:02.288Z,29.57
2022-08-11T14:28:40.019Z,29.82
2022-08-11T14:31:16.037Z,29.63
2022-08-11T14:33:59.985Z,29.79
2022-08-11T14:36:45.720Z,29.60
2022-08-11T14:39:17.911Z,29.51
2022-08-11T14:42:11.191Z,29.54
2022-08-11T14:44:59.696Z,29.59
2022-08-11T14:47:31.439Z,29.56
2022-08-11T14:50:11.623Z,29.60
2022-08-11T14:52:49.056Z,29.81
2022-08-11T14:55:18.636Z,29.87
2022-08-11T14:57:56.173Z,29.78
2022-08-11T15:00:26.836Z,29.84
2022-08-11T15:02:55.783Z,29.91
2022-08-11T15:05:25.682Z,29.83
2022-08-11T15:07:55.779Z,29.87
2022-08-11T15:10:23.342Z,29.92
2022-08-11T15:12:51.430Z,29.87
2022-08-11T15:15:20.918Z,29.78
2022-08-11T15:17:52.962Z,29.68
2022-08-11T15:20:22.691Z,29.65
2022-08-11T15:22:50.052Z,29.71
2022-08-11T15:25:17.485Z,29.65
2022-08-11T15:27:50.701Z,29.82
2022-08-11T15:30:32.631Z,29.82
2022-08-11T15:33:07.829Z,29.89
2022-08-11T15:35:39.308Z,29.74
2022-08-11T15:38:17.540Z,29.74
2022-08-11T15:40:45.467Z,29.94
2022-08-11T15:43:24.601Z,29.82
2022-08-11T15:45:58.270Z,29.84
2022-08-11T15:49:03.655Z,29.85
2022-08-11T15:51:37.060Z,29.86
2022-08-11T15:54:10.298Z,29.79
2022-08-11T15:56:44.100Z,29.81
2022-08-11T15:59:42.008Z,29.79
2022-08-11T16:02:07.247Z,29.76
2022-08-11T16:04:39.757Z,29.76
2022-08-11T16:07:11.261Z,29.80
2022-08-11T16:09:51.658Z,29.71
2022-08-11T16:12:28.391Z,29.79
2022-08-11T16:15:04.529Z,29.80
2022-08-11T16:17:37.566Z,29.71
2022-08-11T16:20:12.183Z,29.66
2022-08-11T16:22:42.693Z,29.64
2022-08-11T16:27:01.681Z,29.57
2022-08-11T16:28:16.404Z,29.58
2022-08-11T16:30:45.986Z,29.58
2022-08-11T16:33:50.468Z,29.64
2022-08-11T16:36:06.654Z,29.60
2022-08-11T16:38:37.931Z,29.54
2022-08-11T16:41:11.802Z,29.61
2022-08-11T16:43:44.762Z,29.64
2022-08-11T16:46:17.035Z,29.56
2022-08-11T16:48:49.110Z,29.58
2022-08-11T16:51:17.423Z,29.60
2022-08-11T16:53:54.786Z,29.58
2022-08-11T16:56:38.312Z,29.57
2022-08-11T16:59:17.060Z,29.51
2022-08-11T17:01:53.518Z,29.45
2022-08-11T17:04:36.545Z,29.55
2022-08-11T17:07:23.803Z,29.45
2022-08-11T17:10:02.744Z,29.41
2022-08-11T17:12:33.952Z,29.32
2022-08-11T17:15:06.492Z,29.36
2022-08-11T17:17:38.956Z,29.37
2022-08-11T17:20:40.336Z,29.34
2022-08-11T17:23:04.844Z,29.28
2022-08-11T17:26:03.959Z,29.28
2022-08-11T17:28:24.564Z,29.20
2022-08-11T17:30:54.659Z,29.17
2022-08-11T17:33:23.923Z,29.20
2022-08-11T17:35:52.011Z,29.17
2022-08-11T17:38:24.522Z,29.14
2022-08-11T17:40:56.410Z,29.06
2022-08-11T17:43:24.438Z,28.97
2022-08-11T17:45:57.481Z,29.01
2022-08-11T17:48:28.598Z,28.96
2022-08-11T17:51:03.051Z,28.95
2022-08-11T17:53:38.694Z,28.93
2022-08-11T17:56:11.487Z,28.85
2022-08-11T17:58:50.230Z,28.70
2022-08-11T18:01:20.949Z,28.73
2022-08-11T18:03:57.430Z,28.69
2022-08-11T18:06:32.606Z,28.64
2022-08-11T18:09:07.568Z,28.62
2022-08-11T18:12:10.036Z,28.59
2022-08-11T18:14:26.945Z,28.46
2022-08-11T18:16:56.358Z,28.39
2022-08-11T18:19:24.422Z,28.36
2022-08-11T18:22:15.791Z,28.36
2022-08-11T18:24:54.417Z,28.25
2022-08-11T18:27:34.732Z,28.03
2022-08-11T18:30:09.699Z,28.11
2022-08-11T18:32:49.695Z,27.96
2022-08-11T18:35:23.021Z,27.78
2022-08-11T18:37:52.803Z,27.70
2022-08-11T18:40:28.025Z,27.67
2022-08-11T18:43:02.310Z,27.56
2022-08-11T18:45:45.264Z,27.50
2022-08-11T18:48:20.629Z,27.38
2022-08-11T18:50:53.553Z,27.29
2022-08-11T18:53:47.377Z,27.28
2022-08-11T18:56:19.967Z,27.18
2022-08-11T18:58:50.305Z,27.16
2022-08-11T19:01:23.169Z,27.10
2022-08-11T19:04:02.251Z,27.06
2022-08-11T19:06:41.252Z,26.98
2022-08-11T19:09:14.744Z,26.87
2022-08-11T19:11:45.690Z,26.79
2022-08-11T19:14:15.667Z,26.73
2022-08-11T19:16:45.557Z,26.68
2022-08-11T19:19:16.376Z,26.58
2022-08-11T19:21:47.397Z,26.35
2022-08-11T19:24:18.015Z,26.44
2022-08-11T19:26:53.180Z,26.40
2022-08-11T19:30:07.014Z,26.27
2022-08-11T19:32:19.128Z,26.22
2022-08-11T19:34:50.140Z,26.19
2022-08-11T19:37:22.032Z,26.18
2022-08-11T19:39:53.069Z,26.11
2022-08-11T19:42:23.096Z,26.01
2022-08-11T19:44:50.785Z,25.95
2022-08-11T19:47:20.384Z,25.96
2022-08-11T19:49:49.737Z,25.91
2022-08-11T19:52:18.868Z,25.90
2022-08-11T19:54:49.214Z,25.59
2022-08-11T19:57:18.358Z,25.33
2022-08-11T19:59:49.711Z,25.24
2022-08-11T20:02:17.579Z,25.06
2022-08-11T20:04:46.021Z,24.82
2022-08-11T20:07:14.210Z,24.89
2022-08-11T20:10:05.182Z,24.88
2022-08-11T20:12:33.036Z,24.89
2022-08-11T20:15:04.430Z,24.86
2022-08-11T20:17:37.529Z,24.84
2022-08-11T20:20:08.521Z,24.82
2022-08-11T20:22:36.913Z,24.79
2022-08-11T20:25:06.664Z,24.66
2022-08-11T20:27:37.889Z,24.61
2022-08-11T20:30:08.180Z,24.57
2022-08-11T20:32:38.933Z,24.42
2022-08-11T20:35:09.466Z,24.36
2022-08-11T20:37:41.032Z,24.25
2022-08-11T20:40:14.826Z,24.21
2022-08-11T20:42:44.491Z,24.24
2022-08-11T20:45:15.666Z,24.14
2022-08-11T20:47:59.420Z,24.17
2022-08-11T20:50:31.710Z,24.20
2022-08-11T20:52:59.459Z,24.19
2022-08-11T20:55:51.662Z,24.14
2022-08-11T20:58:21.958Z,24.10
2022-08-11T21:00:55.474Z,24.06
2022-08-11T21:03:36.224Z,23.97
2022-08-11T21:06:14.628Z,23.97
2022-08-11T21:09:01.619Z,23.93
2022-08-11T21:11:30.313Z,23.91
2022-08-11T21:14:00.703Z,23.89
2022-08-11T21:16:36.365Z,23.79
2022-08-11T21:19:13.232Z,23.68
2022-08-11T21:21:46.277Z,23.58
2022-08-11T21:24:20.080Z,23.59
2022-08-11T21:26:52.510Z,23.55
2022-08-11T21:29:22.413Z,23.39
2022-08-11T21:31:54.618Z,23.38
2022-08-11T21:34:24.682Z,23.28
2022-08-11T21:36:53.655Z,23.10
2022-08-11T21:39:25.393Z,22.99
2022-08-11T21:41:54.340Z,23.01
2022-08-11T21:44:23.275Z,22.95
2022-08-11T21:46:53.356Z,22.76
2022-08-11T21:49:22.971Z,22.64
2022-08-11T21:51:49.812Z,22.56
2022-08-11T21:54:17.790Z,22.67
2022-08-11T21:56:47.168Z,22.69
2022-08-11T21:59:23.679Z,22.86
2022-08-11T22:01:54.467Z,22.82
2022-08-11T22:04:21.736Z,22.82
2022-08-11T22:06:51.243Z,22.94
2022-08-11T22:09:18.891Z,22.91
2022-08-11T22:11:46.371Z,22.91
2022-08-11T22:14:14.227Z,22.93
2022-08-11T22:16:41.075Z,22.93
2022-08-11T22:19:09.990Z,22.92
2022-08-11T22:22:02.742Z,22.99
2022-08-11T22:24:30.467Z,23.00
2022-08-11T22:26:57.895Z,23.00
2022-08-11T22:29:38.195Z,23.04
2022-08-11T22:32:13.333Z,23.02
2022-08-11T22:34:52.999Z,23.01
2022-08-11T22:37:27.281Z,23.00
2022-08-11T22:40:03.066Z,22.97
2022-08-11T22:42:33.985Z,22.97
2022-08-11T22:45:01.703Z,22.92
2022-08-11T22:47:36.422Z,22.86
2022-08-11T22:50:13.118Z,22.83
2022-08-11T22:52:45.692Z,22.77
2022-08-11T22:55:14.953Z,22.75
2022-08-11T22:58:00.951Z,22.69
2022-08-11T23:00:30.527Z,22.71
2022-08-11T23:02:59.448Z,22.71
2022-08-11T23:05:29.348Z,22.72
2022-08-11T23:07:58.159Z,22.53
2022-08-11T23:10:27.691Z,22.61
2022-08-11T23:12:56.581Z,22.53
2022-08-11T23:15:24.496Z,22.45
2022-08-11T23:17:52.223Z,22.39
2022-08-11T23:20:29.645Z,22.36
2022-08-11T23:23:09.742Z,22.27
2022-08-11T23:25:39.250Z,22.24
2022-08-11T23:28:09.869Z,22.19
2022-08-11T23:30:38.758Z,22.11
2022-08-11T23:33:07.970Z,22.07
2022-08-11T23:35:40.493Z,22.00
2022-08-11T23:38:29.019Z,21.91
2022-08-11T23:40:56.233Z,21.86
2022-08-11T23:43:24.460Z,21.76
2022-08-11T23:45:51.362Z,21.74
2022-08-11T23:48:26.831Z,21.75
2022-08-11T23:50:59.402Z,21.74
2022-08-11T23:53:29.314Z,21.54
2022-08-11T23:55:56.258Z,21.49
2022-08-11T23:58:25.989Z,21.47
